sensor_id;sensor_type;location;lat;lon;timestamp;pressure;altitude;pressure_sealevel;temperature;humidity
54503;BME280;40411;50.090;21.954;2023-06-22T00:02:17;-18977.25;;;19.16;100.00
54503;BME280;40411;50.090;21.954;2023-06-22T00:04:44;-18976.78;;;19.14;100.00
54503;BME280;40411;50.090;21.954;2023-06-22T00:07:10;-18975.94;;;19.11;100.00
54503;BME280;40411;50.090;21.954;2023-06-22T00:09:36;-18976.91;;;19.15;100.00
54503;BME280;40411;50.090;21.954;2023-06-22T00:12:02;-18975.81;;;19.10;100.00
54503;BME280;40411;50.090;21.954;2023-06-22T00:14:28;-18973.16;;;18.99;100.00
54503;BME280;40411;50.090;21.954;2023-06-22T00:16:54;-18972.41;;;18.96;100.00
54503;BME280;40411;50.090;21.954;2023-06-22T00:19:25;-18970.00;;;18.86;100.00
54503;BME280;40411;50.090;21.954;2023-06-22T00:21:50;-18967.56;;;18.75;100.00
54503;BME280;40411;50.090;21.954;2023-06-22T00:24:20;-18966.59;;;18.71;100.00
54503;BME280;40411;50.090;21.954;2023-06-22T00:26:48;-18963.69;;;18.59;100.00
54503;BME280;40411;50.090;21.954;2023-06-22T00:29:14;-18964.06;;;18.61;100.00
54503;BME280;40411;50.090;21.954;2023-06-22T00:31:40;-18963.56;;;18.59;100.00
54503;BME280;40411;50.090;21.954;2023-06-22T00:34:06;-18962.13;;;18.52;100.00
54503;BME280;40411;50.090;21.954;2023-06-22T00:36:34;-18961.03;;;18.48;100.00
54503;BME280;40411;50.090;21.954;2023-06-22T00:39:01;-18960.66;;;18.46;100.00
54503;BME280;40411;50.090;21.954;2023-06-22T00:41:27;-18960.53;;;18.46;100.00
54503;BME280;40411;50.090;21.954;2023-06-22T00:43:54;-19291.09;;;18.43;100.00
54503;BME280;40411;50.090;21.954;2023-06-22T00:46:21;-19292.47;;;18.49;100.00
54503;BME280;40411;50.090;21.954;2023-06-22T00:48:48;-19292.97;;;18.51;100.00
54503;BME280;40411;50.090;21.954;2023-06-22T00:51:15;-19292.97;;;18.51;100.00
54503;BME280;40411;50.090;21.954;2023-06-22T00:53:41;-19289.25;;;18.36;100.00
54503;BME280;40411;50.090;21.954;2023-06-22T00:56:10;-19288.50;;;18.33;100.00
54503;BME280;40411;50.090;21.954;2023-06-22T00:58:38;-19289.50;;;18.37;100.00
54503;BME280;40411;50.090;21.954;2023-06-22T01:01:07;-19288.50;;;18.33;100.00
54503;BME280;40411;50.090;21.954;2023-06-22T01:03:33;-19287.88;;;18.30;100.00
54503;BME280;40411;50.090;21.954;2023-06-22T01:06:07;-19285.78;;;18.21;100.00
54503;BME280;40411;50.090;21.954;2023-06-22T01:08:46;-19284.53;;;18.16;100.00
54503;BME280;40411;50.090;21.954;2023-06-22T01:11:36;-19284.28;;;18.15;100.00
54503;BME280;40411;50.090;21.954;2023-06-22T01:14:19;-19284.91;;;18.18;100.00
54503;BME280;40411;50.090;21.954;2023-06-22T01:16:48;-19617.06;;;18.22;100.00
54503;BME280;40411;50.090;21.954;2023-06-22T01:19:46;-19615.53;;;18.16;100.00
54503;BME280;40411;50.090;21.954;2023-06-22T01:22:20;-19614.16;;;18.11;100.00
54503;BME280;40411;50.090;21.954;2023-06-22T01:27:56;-19614.78;;;18.13;100.00
54503;BME280;40411;50.090;21.954;2023-06-22T01:30:28;-19611.75;;;18.01;100.00
54503;BME280;40411;50.090;21.954;2023-06-22T01:32:57;-19612.13;;;18.02;100.00
54503;BME280;40411;50.090;21.954;2023-06-22T01:35:25;-19611.88;;;18.01;100.00
54503;BME280;40411;50.090;21.954;2023-06-22T01:37:51;-19610.47;;;17.96;100.00
54503;BME280;40411;50.090;21.954;2023-06-22T01:40:19;-19608.84;;;17.89;100.00
54503;BME280;40411;50.090;21.954;2023-06-22T01:42:45;-19607.19;;;17.82;100.00
54503;BME280;40411;50.090;21.954;2023-06-22T01:45:12;-19607.72;;;17.77;100.00
54503;BME280;40411;50.090;21.954;2023-06-22T01:47:39;-19606.59;;;17.72;100.00
54503;BME280;40411;50.090;21.954;2023-06-22T01:50:05;-19606.09;;;17.70;100.00
54503;BME280;40411;50.090;21.954;2023-06-22T01:52:32;-19605.19;;;17.67;100.00
54503;BME280;40411;50.090;21.954;2023-06-22T01:55:00;-19603.94;;;17.61;100.00
54503;BME280;40411;50.090;21.954;2023-06-22T01:57:27;-19604.69;;;17.64;100.00
54503;BME280;40411;50.090;21.954;2023-06-22T02:02:24;-19603.31;;;17.59;100.00
54503;BME280;40411;50.090;21.954;2023-06-22T02:05:09;-19602.78;;;17.57;100.00
54503;BME280;40411;50.090;21.954;2023-06-22T02:08:10;-19603.31;;;17.59;100.00
54503;BME280;40411;50.090;21.954;2023-06-22T02:10:36;-19603.31;;;17.59;100.00
54503;BME280;40411;50.090;21.954;2023-06-22T02:13:05;-19606.09;;;17.70;100.00
54503;BME280;40411;50.090;21.954;2023-06-22T02:15:32;-19607.84;;;17.77;100.00
54503;BME280;40411;50.090;21.954;2023-06-22T02:17:59;-19609.13;;;17.82;100.00
54503;BME280;40411;50.090;21.954;2023-06-22T02:20:25;-19611.41;;;17.92;100.00
54503;BME280;40411;50.090;21.954;2023-06-22T02:22:51;-19612.66;;;17.97;100.00
54503;BME280;40411;50.090;21.954;2023-06-22T02:25:17;-19610.91;;;17.90;100.00
54503;BME280;40411;50.090;21.954;2023-06-22T02:27:45;-19610.53;;;17.88;100.00
54503;BME280;40411;50.090;21.954;2023-06-22T02:30:12;-19612.66;;;17.97;100.00
54503;BME280;40411;50.090;21.954;2023-06-22T02:32:38;-19613.44;;;18.00;100.00
54503;BME280;40411;50.090;21.954;2023-06-22T02:35:10;-19615.06;;;18.06;100.00
54503;BME280;40411;50.090;21.954;2023-06-22T02:37:36;-19615.06;;;18.06;100.00
54503;BME280;40411;50.090;21.954;2023-06-22T02:40:06;-19613.44;;;18.00;100.00
54503;BME280;40411;50.090;21.954;2023-06-22T02:42:33;-19612.16;;;17.95;100.00
54503;BME280;40411;50.090;21.954;2023-06-22T02:44:59;-19610.91;;;17.90;100.00
54503;BME280;40411;50.090;21.954;2023-06-22T02:47:25;-19610.66;;;17.89;100.00
54503;BME280;40411;50.090;21.954;2023-06-22T02:49:52;-19612.16;;;17.95;100.00
54503;BME280;40411;50.090;21.954;2023-06-22T02:52:18;-19612.66;;;17.97;100.00
54503;BME280;40411;50.090;21.954;2023-06-22T02:54:44;-19615.72;;;18.09;100.00
54503;BME280;40411;50.090;21.954;2023-06-22T02:57:14;-19618.13;;;18.19;100.00
54503;BME280;40411;50.090;21.954;2023-06-22T02:59:42;-19619.00;;;18.22;100.00
54503;BME280;40411;50.090;21.954;2023-06-22T03:02:10;-19618.25;;;18.19;100.00
54503;BME280;40411;50.090;21.954;2023-06-22T03:04:37;-19619.13;;;18.23;100.00
54503;BME280;40411;50.090;21.954;2023-06-22T03:07:03;-19620.66;;;18.29;100.00
54503;BME280;40411;50.090;21.954;2023-06-22T03:09:30;-19623.06;;;18.39;100.00
54503;BME280;40411;50.090;21.954;2023-06-22T03:11:57;-19624.94;;;18.46;100.00
54503;BME280;40411;50.090;21.954;2023-06-22T03:14:26;-19627.47;;;18.57;100.00
54503;BME280;40411;50.090;21.954;2023-06-22T03:16:53;-19628.22;;;18.60;100.00
54503;BME280;40411;50.090;21.954;2023-06-22T03:19:19;-19628.22;;;18.60;100.00
54503;BME280;40411;50.090;21.954;2023-06-22T03:21:47;-19629.88;;;18.66;100.00
54503;BME280;40411;50.090;21.954;2023-06-22T03:24:13;-19630.38;;;18.68;100.00
54503;BME280;40411;50.090;21.954;2023-06-22T03:26:39;-19629.88;;;18.66;100.00
54503;BME280;40411;50.090;21.954;2023-06-22T03:29:05;-19630.25;;;18.68;100.00
54503;BME280;40411;50.090;21.954;2023-06-22T03:31:33;-19631.91;;;18.74;100.00
54503;BME280;40411;50.090;21.954;2023-06-22T03:33:59;-19632.41;;;18.77;100.00
54503;BME280;40411;50.090;21.954;2023-06-22T03:36:25;-19633.16;;;18.80;100.00
54503;BME280;40411;50.090;21.954;2023-06-22T03:38:51;-19633.94;;;18.83;100.00
54503;BME280;40411;50.090;21.954;2023-06-22T03:41:17;-19636.31;;;18.92;100.00
54503;BME280;40411;50.090;21.954;2023-06-22T03:43:43;-19637.97;;;18.99;100.00
54503;BME280;40411;50.090;21.954;2023-06-22T03:46:09;-19639.88;;;19.07;100.00
54503;BME280;40411;50.090;21.954;2023-06-22T03:48:35;-19642.53;;;19.17;100.00
54503;BME280;40411;50.090;21.954;2023-06-22T03:51:02;-19643.03;;;19.19;100.00
54503;BME280;40411;50.090;21.954;2023-06-22T03:53:29;-19644.53;;;19.26;100.00
54503;BME280;40411;50.090;21.954;2023-06-22T03:55:55;-19644.91;;;19.27;100.00
54503;BME280;40411;50.090;21.954;2023-06-22T03:58:22;-19646.19;;;19.32;100.00
54503;BME280;40411;50.090;21.954;2023-06-22T04:00:49;-19649.59;;;19.46;100.00
54503;BME280;40411;50.090;21.954;2023-06-22T04:03:15;-19649.09;;;19.44;100.00
54503;BME280;40411;50.090;21.954;2023-06-22T04:05:42;-19649.34;;;19.45;100.00
54503;BME280;40411;50.090;21.954;2023-06-22T04:08:08;-19653.00;;;19.60;100.00
54503;BME280;40411;50.090;21.954;2023-06-22T04:10:34;-19654.41;;;19.66;100.00
54503;BME280;40411;50.090;21.954;2023-06-22T04:13:00;-19657.16;;;19.77;100.00
54503;BME280;40411;50.090;21.954;2023-06-22T04:15:25;-19657.94;;;19.80;100.00
54503;BME280;40411;50.090;21.954;2023-06-22T04:17:51;-19656.03;;;19.72;100.00
54503;BME280;40411;50.090;21.954;2023-06-22T04:20:17;-19654.53;;;19.66;100.00
54503;BME280;40411;50.090;21.954;2023-06-22T04:22:43;-19656.66;;;19.75;100.00
54503;BME280;40411;50.090;21.954;2023-06-22T04:25:09;-19659.69;;;19.87;100.00
54503;BME280;40411;50.090;21.954;2023-06-22T04:27:35;-19661.34;;;19.94;100.00
54503;BME280;40411;50.090;21.954;2023-06-22T04:30:07;-19659.94;;;19.88;100.00
54503;BME280;40411;50.090;21.954;2023-06-22T04:32:34;-19666.50;;;20.15;100.00
54503;BME280;40411;50.090;21.954;2023-06-22T04:35:04;-19664.50;;;20.06;100.00
54503;BME280;40411;50.090;21.954;2023-06-22T04:37:32;-19668.28;;;20.22;100.00
54503;BME280;40411;50.090;21.954;2023-06-22T04:39:59;-19669.53;;;20.27;100.00
54503;BME280;40411;50.090;21.954;2023-06-22T04:42:26;-19673.06;;;20.41;100.00
54503;BME280;40411;50.090;21.954;2023-06-22T04:44:51;-19674.44;;;20.47;100.00
54503;BME280;40411;50.090;21.954;2023-06-22T04:47:18;-19675.97;;;20.53;100.00
54503;BME280;40411;50.090;21.954;2023-06-22T04:49:43;-19677.50;;;20.59;100.00
54503;BME280;40411;50.090;21.954;2023-06-22T04:52:11;-19682.41;;;20.79;100.00
54503;BME280;40411;50.090;21.954;2023-06-22T04:54:39;-19685.41;;;20.91;100.00
54503;BME280;40411;50.090;21.954;2023-06-22T04:57:07;-19689.72;;;21.09;100.00
54503;BME280;40411;50.090;21.954;2023-06-22T04:59:36;-19692.22;;;21.19;100.00
54503;BME280;40411;50.090;21.954;2023-06-22T05:02:04;-19694.75;;;21.29;100.00
54503;BME280;40411;50.090;21.954;2023-06-22T05:04:31;-19695.75;;;21.33;100.00
54503;BME280;40411;50.090;21.954;2023-06-22T05:06:59;-19694.50;;;21.28;100.00
54503;BME280;40411;50.090;21.954;2023-06-22T05:09:26;-19696.50;;;21.36;100.00
54503;BME280;40411;50.090;21.954;2023-06-22T05:11:52;-19698.16;;;21.43;100.00
54503;BME280;40411;50.090;21.954;2023-06-22T05:14:18;-19692.97;;;21.22;100.00
54503;BME280;40411;50.090;21.954;2023-06-22T05:16:45;-19700.28;;;21.52;100.00
54503;BME280;40411;50.090;21.954;2023-06-22T05:19:11;-19704.19;;;21.68;100.00
54503;BME280;40411;50.090;21.954;2023-06-22T05:21:37;-19703.81;;;21.66;100.00
54503;BME280;40411;50.090;21.954;2023-06-22T05:24:05;-19701.78;;;21.58;100.00
54503;BME280;40411;50.090;21.954;2023-06-22T05:26:32;-19702.31;;;21.60;100.00
54503;BME280;40411;50.090;21.954;2023-06-22T05:29:00;-19703.69;;;21.66;100.00
54503;BME280;40411;50.090;21.954;2023-06-22T05:31:27;-19699.53;;;21.49;100.00
54503;BME280;40411;50.090;21.954;2023-06-22T05:33:54;-19700.03;;;21.51;100.00
54503;BME280;40411;50.090;21.954;2023-06-22T05:36:20;-19702.19;;;21.59;100.00
54503;BME280;40411;50.090;21.954;2023-06-22T05:38:47;-19706.59;;;21.77;100.00
54503;BME280;40411;50.090;21.954;2023-06-22T05:41:13;-19703.06;;;21.63;100.00
54503;BME280;40411;50.090;21.954;2023-06-22T05:43:39;-19706.34;;;21.76;100.00
54503;BME280;40411;50.090;21.954;2023-06-22T05:46:06;-19706.34;;;21.76;100.00
54503;BME280;40411;50.090;21.954;2023-06-22T05:48:31;-19709.09;;;21.88;100.00
54503;BME280;40411;50.090;21.954;2023-06-22T05:50:58;-19711.09;;;21.96;100.00
54503;BME280;40411;50.090;21.954;2023-06-22T05:53:24;-19709.97;;;21.91;100.00
54503;BME280;40411;50.090;21.954;2023-06-22T05:55:50;-19714.63;;;22.10;100.00
54503;BME280;40411;50.090;21.954;2023-06-22T05:58:16;-19717.03;;;22.20;100.00
54503;BME280;40411;50.090;21.954;2023-06-22T06:00:42;-19709.72;;;21.90;100.00
54503;BME280;40411;50.090;21.954;2023-06-22T06:03:09;-19710.09;;;21.92;100.00
54503;BME280;40411;50.090;21.954;2023-06-22T06:05:36;-19715.75;;;22.15;100.00
54503;BME280;40411;50.090;21.954;2023-06-22T06:08:04;-19718.53;;;22.26;100.00
54503;BME280;40411;50.090;21.954;2023-06-22T06:10:31;-19726.06;;;22.57;100.00
54503;BME280;40411;50.090;21.954;2023-06-22T06:12:57;-19725.81;;;22.56;100.00
54503;BME280;40411;50.090;21.954;2023-06-22T06:15:23;-19720.28;;;22.33;100.00
54503;BME280;40411;50.090;21.954;2023-06-22T06:17:50;-19712.50;;;22.01;100.00
54503;BME280;40411;50.090;21.954;2023-06-22T06:20:25;-19708.72;;;21.86;100.00
54503;BME280;40411;50.090;21.954;2023-06-22T06:22:51;-19714.00;;;22.07;100.00
54503;BME280;40411;50.090;21.954;2023-06-22T06:25:18;-19712.13;;;22.00;100.00
54503;BME280;40411;50.090;21.954;2023-06-22T06:27:46;-19723.06;;;22.44;100.00
54503;BME280;40411;50.090;21.954;2023-06-22T06:30:14;-19733.47;;;22.87;100.00
54503;BME280;40411;50.090;21.954;2023-06-22T06:32:41;-19736.38;;;22.99;100.00
54503;BME280;40411;50.090;21.954;2023-06-22T06:35:07;-19729.22;;;22.69;100.00
54503;BME280;40411;50.090;21.954;2023-06-22T06:37:40;-19738.00;;;23.05;100.00
54503;BME280;40411;50.090;21.954;2023-06-22T06:40:08;-19749.19;;;23.51;100.00
54503;BME280;40411;50.090;21.954;2023-06-22T06:42:40;-19766.75;;;24.22;100.00
54503;BME280;40411;50.090;21.954;2023-06-22T06:45:08;-19807.91;;;25.91;100.00
54503;BME280;40411;50.090;21.954;2023-06-22T06:47:34;-19819.16;;;26.37;100.00
54503;BME280;40411;50.090;21.954;2023-06-22T06:50:00;-19822.66;;;26.51;100.00
54503;BME280;40411;50.090;21.954;2023-06-22T06:52:26;-19810.53;;;26.01;100.00
54503;BME280;40411;50.090;21.954;2023-06-22T06:54:52;-19838.00;;;27.14;99.62
54503;BME280;40411;50.090;21.954;2023-06-22T06:57:18;-19842.50;;;27.32;99.20
54503;BME280;40411;50.090;21.954;2023-06-22T06:59:46;-19853.59;;;27.78;95.66
54503;BME280;40411;50.090;21.954;2023-06-22T07:02:11;-19865.28;;;28.26;94.95
54503;BME280;40411;50.090;21.954;2023-06-22T07:04:37;-19882.69;;;28.98;86.12
54503;BME280;40411;50.090;21.954;2023-06-22T07:07:03;-19890.78;;;29.31;88.62
54503;BME280;40411;50.090;21.954;2023-06-22T07:09:29;-19903.44;;;29.83;83.56
54503;BME280;40411;50.090;21.954;2023-06-22T07:11:55;-19887.56;;;29.17;84.84
54503;BME280;40411;50.090;21.954;2023-06-22T07:14:21;-19882.31;;;28.96;87.11
54503;BME280;40411;50.090;21.954;2023-06-22T07:16:47;-19896.25;;;29.53;84.59
54503;BME280;40411;50.090;21.954;2023-06-22T07:19:13;-19899.34;;;29.66;87.41
54503;BME280;40411;50.090;21.954;2023-06-22T07:21:39;-19921.94;;;30.59;82.05
54503;BME280;40411;50.090;21.954;2023-06-22T07:24:07;-19922.06;;;30.60;82.19
54503;BME280;40411;50.090;21.954;2023-06-22T07:26:33;-19927.25;;;30.81;79.09
54503;BME280;40411;50.090;21.954;2023-06-22T07:28:59;-19916.72;;;30.38;78.66
54503;BME280;40411;50.090;21.954;2023-06-22T07:31:26;-19943.84;;;31.50;74.50
54503;BME280;40411;50.090;21.954;2023-06-22T07:33:52;-19918.47;;;30.45;74.44
54503;BME280;40411;50.090;21.954;2023-06-22T07:36:18;-19910.41;;;30.12;77.08
54503;BME280;40411;50.090;21.954;2023-06-22T07:38:44;-19927.63;;;30.83;74.04
54503;BME280;40411;50.090;21.954;2023-06-22T07:41:10;-19930.22;;;30.93;75.60
54503;BME280;40411;50.090;21.954;2023-06-22T07:43:36;-19942.25;;;31.43;68.21
54503;BME280;40411;50.090;21.954;2023-06-22T07:46:03;-19959.31;;;32.14;67.24
54503;BME280;40411;50.090;21.954;2023-06-22T07:48:29;-19951.28;;;31.80;66.60
54503;BME280;40411;50.090;21.954;2023-06-22T07:50:55;-19964.00;;;32.33;67.45
54503;BME280;40411;50.090;21.954;2023-06-22T07:53:21;-19986.34;;;33.26;65.00
54503;BME280;40411;50.090;21.954;2023-06-22T07:55:49;-19961.78;;;32.24;61.48
54503;BME280;40411;50.090;21.954;2023-06-22T07:58:15;-19972.53;;;32.68;64.46
54503;BME280;40411;50.090;21.954;2023-06-22T08:00:41;-19963.38;;;32.31;69.16
54503;BME280;40411;50.090;21.954;2023-06-22T08:03:07;-19945.94;;;31.58;69.46
54503;BME280;40411;50.090;21.954;2023-06-22T08:05:33;-19930.84;;;30.96;68.11
54503;BME280;40411;50.090;21.954;2023-06-22T08:07:59;-19914.50;;;30.28;70.74
54503;BME280;40411;50.090;21.954;2023-06-22T08:10:24;-19902.81;;;29.80;74.74
54503;BME280;40411;50.090;21.954;2023-06-22T08:12:51;-19906.78;;;29.97;73.66
54503;BME280;40411;50.090;21.954;2023-06-22T08:15:18;-19913.50;;;30.24;74.85
54503;BME280;40411;50.090;21.954;2023-06-22T08:17:45;-19897.84;;;29.60;77.89
54503;BME280;40411;50.090;21.954;2023-06-22T08:20:11;-19908.66;;;30.04;78.97
54503;BME280;40411;50.090;21.954;2023-06-22T08:22:43;-19923.16;;;30.64;71.32
54503;BME280;40411;50.090;21.954;2023-06-22T08:25:09;-19939.75;;;31.33;75.93
54503;BME280;40411;50.090;21.954;2023-06-22T08:27:36;-19936.78;;;31.21;70.72
54503;BME280;40411;50.090;21.954;2023-06-22T08:30:02;-19974.00;;;32.75;67.63
54503;BME280;40411;50.090;21.954;2023-06-22T08:32:28;-20014.56;;;34.43;65.03
54503;BME280;40411;50.090;21.954;2023-06-22T08:34:56;-19981.53;;;33.06;66.83
54503;BME280;40411;50.090;21.954;2023-06-22T08:37:22;-19978.09;;;32.91;69.77
54503;BME280;40411;50.090;21.954;2023-06-22T08:40:00;-19974.13;;;32.75;67.55
54503;BME280;40411;50.090;21.954;2023-06-22T08:42:35;-19990.03;;;33.41;64.01
54503;BME280;40411;50.090;21.954;2023-06-22T08:45:00;-19940.50;;;31.36;68.05
54503;BME280;40411;50.090;21.954;2023-06-22T08:47:27;-19945.47;;;31.56;71.25
54503;BME280;40411;50.090;21.954;2023-06-22T08:49:53;-19965.13;;;32.38;67.78
54503;BME280;40411;50.090;21.954;2023-06-22T08:52:20;-19991.66;;;33.48;66.47
54503;BME280;40411;50.090;21.954;2023-06-22T08:54:47;-19984.75;;;33.19;64.51
54503;BME280;40411;50.090;21.954;2023-06-22T08:57:13;-19987.22;;;33.29;62.01
54503;BME280;40411;50.090;21.954;2023-06-22T08:59:38;-19954.50;;;31.94;66.58
54503;BME280;40411;50.090;21.954;2023-06-22T09:02:05;-19956.22;;;32.01;65.59
54503;BME280;40411;50.090;21.954;2023-06-22T09:04:31;-19954.63;;;31.94;65.98
54503;BME280;40411;50.090;21.954;2023-06-22T09:07:01;-19967.72;;;32.48;66.66
54503;BME280;40411;50.090;21.954;2023-06-22T09:09:26;-19980.81;;;33.03;62.86
54503;BME280;40411;50.090;21.954;2023-06-22T09:11:52;-19965.59;;;32.40;68.04
54503;BME280;40411;50.090;21.954;2023-06-22T09:14:18;-19928.38;;;30.86;71.30
54503;BME280;40411;50.090;21.954;2023-06-22T09:16:44;-19958.06;;;32.09;73.26
54503;BME280;40411;50.090;21.954;2023-06-22T09:19:10;-19975.63;;;32.81;66.14
54503;BME280;40411;50.090;21.954;2023-06-22T09:21:36;-20005.94;;;34.07;64.70
54503;BME280;40411;50.090;21.954;2023-06-22T09:24:02;-19985.97;;;33.24;63.82
54503;BME280;40411;50.090;21.954;2023-06-22T09:26:29;-19989.06;;;33.37;61.42
54503;BME280;40411;50.090;21.954;2023-06-22T09:28:54;-20002.00;;;33.91;60.81
54503;BME280;40411;50.090;21.954;2023-06-22T09:31:20;-20007.91;;;34.15;64.20
54503;BME280;40411;50.090;21.954;2023-06-22T09:33:52;-19998.06;;;33.74;60.91
54503;BME280;40411;50.090;21.954;2023-06-22T09:36:18;-19986.22;;;33.25;63.51
54503;BME280;40411;50.090;21.954;2023-06-22T09:38:44;-19958.94;;;32.12;67.71
54503;BME280;40411;50.090;21.954;2023-06-22T09:41:10;-19940.38;;;31.35;73.80
54503;BME280;40411;50.090;21.954;2023-06-22T09:43:36;-19947.94;;;31.67;70.50
54503;BME280;40411;50.090;21.954;2023-06-22T09:46:02;-19919.06;;;30.47;74.30
54503;BME280;40411;50.090;21.954;2023-06-22T09:48:28;-19914.88;;;30.30;77.60
54503;BME280;40411;50.090;21.954;2023-06-22T09:50:56;-19915.00;;;30.31;79.94
54503;BME280;40411;50.090;21.954;2023-06-22T09:53:22;-19896.75;;;29.55;77.32
54503;BME280;40411;50.090;21.954;2023-06-22T09:55:48;-19883.56;;;29.01;82.37
54503;BME280;40411;50.090;21.954;2023-06-22T09:58:13;-19878.97;;;28.82;85.63
54503;BME280;40411;50.090;21.954;2023-06-22T10:00:39;-19867.28;;;28.34;88.39
54503;BME280;40411;50.090;21.954;2023-06-22T10:03:07;-19870.03;;;28.45;86.36
54503;BME280;40411;50.090;21.954;2023-06-22T10:05:33;-19860.81;;;28.07;86.88
54503;BME280;40411;50.090;21.954;2023-06-22T10:07:59;-19864.53;;;28.23;85.53
54503;BME280;40411;50.090;21.954;2023-06-22T10:10:25;-19862.06;;;28.13;92.65
54503;BME280;40411;50.090;21.954;2023-06-22T10:13:06;-19860.56;;;28.06;88.64
54503;BME280;40411;50.090;21.954;2023-06-22T10:15:34;-19860.56;;;28.06;87.37
54503;BME280;40411;50.090;21.954;2023-06-22T10:17:59;-19854.34;;;27.81;93.32
54503;BME280;40411;50.090;21.954;2023-06-22T10:20:25;-19864.78;;;28.24;91.64
54503;BME280;40411;50.090;21.954;2023-06-22T10:22:51;-19867.41;;;28.35;88.80
54503;BME280;40411;50.090;21.954;2023-06-22T10:25:17;-19870.03;;;28.45;86.75
54503;BME280;40411;50.090;21.954;2023-06-22T10:27:43;-19871.75;;;28.52;88.35
54503;BME280;40411;50.090;21.954;2023-06-22T10:30:11;-19876.25;;;28.71;86.74
54503;BME280;40411;50.090;21.954;2023-06-22T10:32:42;-19892.53;;;29.38;86.17
54503;BME280;40411;50.090;21.954;2023-06-22T10:35:11;-19895.75;;;29.51;82.91
54503;BME280;40411;50.090;21.954;2023-06-22T10:37:38;-19917.22;;;30.40;83.98
54503;BME280;40411;50.090;21.954;2023-06-22T10:40:05;-19929.75;;;30.91;77.24
54503;BME280;40411;50.090;21.954;2023-06-22T10:42:31;-19924.91;;;30.71;78.08
54503;BME280;40411;50.090;21.954;2023-06-22T10:44:57;-19938.03;;;31.26;79.66
54503;BME280;40411;50.090;21.954;2023-06-22T10:47:22;-19938.53;;;31.28;77.83
54503;BME280;40411;50.090;21.954;2023-06-22T10:49:49;-19945.84;;;31.58;72.90
54503;BME280;40411;50.090;21.954;2023-06-22T10:52:14;-19927.13;;;30.81;73.87
54503;BME280;40411;50.090;21.954;2023-06-22T10:54:41;-19933.31;;;31.06;72.80
54503;BME280;40411;50.090;21.954;2023-06-22T10:57:06;-19962.03;;;32.25;73.59
54503;BME280;40411;50.090;21.954;2023-06-22T10:59:32;-19990.91;;;33.45;68.65
54503;BME280;40411;50.090;21.954;2023-06-22T11:01:58;-19971.53;;;32.64;66.18
54503;BME280;40411;50.090;21.954;2023-06-22T11:04:24;-19979.06;;;32.96;71.00
54503;BME280;40411;50.090;21.954;2023-06-22T11:06:50;-19972.66;;;32.69;69.94
54503;BME280;40411;50.090;21.954;2023-06-22T11:09:17;-20004.34;;;34.00;70.52
54503;BME280;40411;50.090;21.954;2023-06-22T11:11:46;-19987.47;;;33.30;65.66
54503;BME280;40411;50.090;21.954;2023-06-22T11:14:13;-19991.41;;;33.47;66.02
54503;BME280;40411;50.090;21.954;2023-06-22T11:16:38;-20017.50;;;34.55;64.85
54503;BME280;40411;50.090;21.954;2023-06-22T11:19:05;-20004.34;;;34.00;59.95
54503;BME280;40411;50.090;21.954;2023-06-22T11:21:31;-19993.63;;;33.56;63.42
54503;BME280;40411;50.090;21.954;2023-06-22T11:23:58;-19984.75;;;33.19;65.30
54503;BME280;40411;50.090;21.954;2023-06-22T11:26:25;-19944.72;;;31.53;67.74
54503;BME280;40411;50.090;21.954;2023-06-22T11:28:53;-19962.16;;;32.25;72.78
54503;BME280;40411;50.090;21.954;2023-06-22T11:31:19;-19967.72;;;32.48;67.69
54503;BME280;40411;50.090;21.954;2023-06-22T11:33:45;-19965.97;;;32.41;70.01
54503;BME280;40411;50.090;21.954;2023-06-22T11:36:12;-19956.84;;;32.03;63.43
54503;BME280;40411;50.090;21.954;2023-06-22T11:38:38;-19955.34;;;31.97;72.72
54503;BME280;40411;50.090;21.954;2023-06-22T11:41:08;-19968.94;;;32.54;66.83
54503;BME280;40411;50.090;21.954;2023-06-22T11:43:34;-19966.84;;;32.45;67.49
54503;BME280;40411;50.090;21.954;2023-06-22T11:46:03;-19956.34;;;32.01;69.36
54503;BME280;40411;50.090;21.954;2023-06-22T11:48:30;-19952.13;;;31.84;67.42
54503;BME280;40411;50.090;21.954;2023-06-22T11:50:56;-19942.88;;;31.46;68.63
54503;BME280;40411;50.090;21.954;2023-06-22T11:53:24;-19980.69;;;33.02;66.18
54503;BME280;40411;50.090;21.954;2023-06-22T11:55:50;-19947.69;;;31.66;68.36
54503;BME280;40411;50.090;21.954;2023-06-22T11:58:16;-19940.13;;;31.34;71.08
54503;BME280;40411;50.090;21.954;2023-06-22T12:00:42;-19934.31;;;31.10;66.90
54503;BME280;40411;50.090;21.954;2023-06-22T12:03:08;-19918.22;;;30.44;77.68
54503;BME280;40411;50.090;21.954;2023-06-22T12:05:34;-19913.63;;;30.25;76.71
54503;BME280;40411;50.090;21.954;2023-06-22T12:08:00;-19902.59;;;29.79;76.54
54503;BME280;40411;50.090;21.954;2023-06-22T12:10:26;-19881.22;;;28.91;78.26
54503;BME280;40411;50.090;21.954;2023-06-22T12:12:54;-19880.34;;;28.88;80.67
54503;BME280;40411;50.090;21.954;2023-06-22T12:15:20;-19877.47;;;28.76;86.97
54503;BME280;40411;50.090;21.954;2023-06-22T12:17:46;-19867.28;;;28.34;89.07
54503;BME280;40411;50.090;21.954;2023-06-22T12:20:13;-19861.69;;;28.11;94.37
54503;BME280;40411;50.090;21.954;2023-06-22T12:22:40;-19855.09;;;27.84;91.47
54503;BME280;40411;50.090;21.954;2023-06-22T12:25:10;-19844.13;;;27.39;96.10
54503;BME280;40411;50.090;21.954;2023-06-22T12:27:36;-19814.16;;;26.16;100.00
54503;BME280;40411;50.090;21.954;2023-06-22T12:30:03;-19780.41;;;24.78;100.00
54503;BME280;40411;50.090;21.954;2023-06-22T12:32:29;-19743.41;;;23.27;100.00
54503;BME280;40411;50.090;21.954;2023-06-22T12:34:55;-19724.81;;;22.51;100.00
54503;BME280;40411;50.090;21.954;2023-06-22T12:37:22;-19720.41;;;22.34;100.00
54503;BME280;40411;50.090;21.954;2023-06-22T12:39:48;-19715.13;;;22.12;100.00
54503;BME280;40411;50.090;21.954;2023-06-22T12:42:15;-19707.84;;;21.82;100.00